Birk — V2BF5 — position and weather

sailwx.info

Track history (hours):
 
Tides and Currents Weather Stations Pressure Air Temp Water Temp Dewpoint Dewpoint Depression Visibility Wind Speed Wind Dir Waves Ship Positions

Birk

Last reported at 2016-Jul-23 22:33 UTC. Time now 2016-Jul-23 23:10 UTC.
Position N 10°37' W 061°37'.

Length 132 m; draft 5.9 m.

Type: Ship. MMSI: 304535000.

Date/timePositionNaut miles runAvg speedWind from/ knotsBaromVisibWave heightAir tempDewpointWater temp
2016-Jul-23 22:33N 10°37' W 061°37'0 0.1
2016-Jul-23 21:31N 10°37' W 061°37'0 0.0
2016-Jul-23 20:26N 10°37' W 061°37'0 0.0
2016-Jul-23 19:28N 10°37' W 061°36'0 0.0
2016-Jul-23 18:32N 10°37' W 061°36'0 0.1
2016-Jul-23 17:33N 10°37' W 061°37'0 0.1
2016-Jul-23 16:31N 10°37' W 061°37'0 0.0
2016-Jul-23 15:32N 10°37' W 061°37'0 0.0
2016-Jul-23 14:33N 10°37' W 061°37'0 0.0
2016-Jul-23 13:33N 10°37' W 061°37'0 0.0
2016-Jul-23 12:33N 10°37' W 061°37'0 0.1
2016-Jul-23 11:33N 10°37' W 061°37'0 0.1
2016-Jul-23 10:33N 10°37' W 061°37'4 3.8
2016-Jul-23 09:33N 10°36' W 061°40'9 8.9
2016-Jul-23 08:34N 10°29' W 061°46'8 8.3
2016-Jul-23 07:33N 10°23' W 061°51'10 8.2
2016-Jul-23 06:20N 10°18' W 062°00'  
2016-Jul-16 18:05N 10°55' W 061°36'915.5
2016-Jul-16 17:29N 10°49' W 061°42'1111.6
2016-Jul-16 16:33N 10°38' W 061°43'1211.7
2016-Jul-16 15:33N 10°39' W 061°32'0 0.1
2016-Jul-16 14:33N 10°39' W 061°32'0 0.0
2016-Jul-16 13:33N 10°39' W 061°32'0 0.0
2016-Jul-16 12:31N 10°39' W 061°32'0 0.0
2016-Jul-16 11:31N 10°39' W 061°32'0 0.0
2016-Jul-16 10:27N 10°39' W 061°32'0 0.0
2016-Jul-16 09:33N 10°39' W 061°32'0 0.0
2016-Jul-16 08:33N 10°39' W 061°32'0 0.0
2016-Jul-16 07:32N 10°39' W 061°32'0 0.0
2016-Jul-16 06:26N 10°39' W 061°32'0 0.0
2016-Jul-16 04:32N 10°39' W 061°32'0 0.0
2016-Jul-16 03:33N 10°39' W 061°32'0 0.0
2016-Jul-16 02:31N 10°39' W 061°32'0 0.0
2016-Jul-16 01:33N 10°39' W 061°32'0 0.0
2016-Jul-16 00:31N 10°39' W 061°32'0 0.0
2016-Jul-15 23:31N 10°39' W 061°32'0 0.0
2016-Jul-15 22:33N 10°39' W 061°32'0 0.0
2016-Jul-15 21:30N 10°39' W 061°32'0 0.0
2016-Jul-15 20:32N 10°39' W 061°32'0 0.0
2016-Jul-15 19:31N 10°39' W 061°32'0 0.0
2016-Jul-15 18:33N 10°39' W 061°32'0 0.0
2016-Jul-15 17:33N 10°39' W 061°32'0 0.0
2016-Jul-15 16:33N 10°39' W 061°32'0 0.0
2016-Jul-15 15:31N 10°39' W 061°32'0 0.0
2016-Jul-15 14:32N 10°39' W 061°32'0 0.0
2016-Jul-15 13:31N 10°39' W 061°32'0 0.0
2016-Jul-15 12:32N 10°39' W 061°32'0 0.0
2016-Jul-15 11:33N 10°39' W 061°32'0 0.0
2016-Jul-15 10:33N 10°39' W 061°32'3 3.5
2016-Jul-15 09:34N 10°37' W 061°35'7 7.4
2016-Jul-15 08:33N 10°35' W 061°42'1212.3
2016-Jul-15 07:34N 10°25' W 061°49'1413.5
2016-Jul-15 06:33N 10°17' W 062°00'4711.3
2016-Jul-15 02:24N 09°59' W 061°17'  
Track history (hours):
 
Tides and Currents Weather Stations Pressure Air Temp Water Temp Dewpoint Dewpoint Depression Visibility Wind Speed Wind Dir Waves Ship Positions

Birk

Last reported at 2016-Jul-23 22:33 UTC. Time now 2016-Jul-23 23:10 UTC.
Position N 10°37' W 061°37'.

Length 132 m; draft 5.9 m.

Type: Ship. MMSI: 304535000.

Date/timePositionNaut miles runAvg speedWind from/ knotsBaromVisibWave heightAir tempDewpointWater temp
2016-Jul-23 22:33N 10°37' W 061°37'0 0.1
2016-Jul-23 21:31N 10°37' W 061°37'0 0.0
2016-Jul-23 20:26N 10°37' W 061°37'0 0.0
2016-Jul-23 19:28N 10°37' W 061°36'0 0.0
2016-Jul-23 18:32N 10°37' W 061°36'0 0.1
2016-Jul-23 17:33N 10°37' W 061°37'0 0.1
2016-Jul-23 16:31N 10°37' W 061°37'0 0.0
2016-Jul-23 15:32N 10°37' W 061°37'0 0.0
2016-Jul-23 14:33N 10°37' W 061°37'0 0.0
2016-Jul-23 13:33N 10°37' W 061°37'0 0.0
2016-Jul-23 12:33N 10°37' W 061°37'0 0.1
2016-Jul-23 11:33N 10°37' W 061°37'0 0.1
2016-Jul-23 10:33N 10°37' W 061°37'4 3.8
2016-Jul-23 09:33N 10°36' W 061°40'9 8.9
2016-Jul-23 08:34N 10°29' W 061°46'8 8.3
2016-Jul-23 07:33N 10°23' W 061°51'10 8.2
2016-Jul-23 06:20N 10°18' W 062°00'  
2016-Jul-16 18:05N 10°55' W 061°36'915.5
2016-Jul-16 17:29N 10°49' W 061°42'1111.6
2016-Jul-16 16:33N 10°38' W 061°43'1211.7
2016-Jul-16 15:33N 10°39' W 061°32'0 0.1
2016-Jul-16 14:33N 10°39' W 061°32'0 0.0
2016-Jul-16 13:33N 10°39' W 061°32'0 0.0
2016-Jul-16 12:31N 10°39' W 061°32'0 0.0
2016-Jul-16 11:31N 10°39' W 061°32'0 0.0
2016-Jul-16 10:27N 10°39' W 061°32'0 0.0
2016-Jul-16 09:33N 10°39' W 061°32'0 0.0
2016-Jul-16 08:33N 10°39' W 061°32'0 0.0
2016-Jul-16 07:32N 10°39' W 061°32'0 0.0
2016-Jul-16 06:26N 10°39' W 061°32'0 0.0
2016-Jul-16 04:32N 10°39' W 061°32'0 0.0
2016-Jul-16 03:33N 10°39' W 061°32'0 0.0
2016-Jul-16 02:31N 10°39' W 061°32'0 0.0
2016-Jul-16 01:33N 10°39' W 061°32'0 0.0
2016-Jul-16 00:31N 10°39' W 061°32'0 0.0
2016-Jul-15 23:31N 10°39' W 061°32'0 0.0
2016-Jul-15 22:33N 10°39' W 061°32'0 0.0
2016-Jul-15 21:30N 10°39' W 061°32'0 0.0
2016-Jul-15 20:32N 10°39' W 061°32'0 0.0
2016-Jul-15 19:31N 10°39' W 061°32'0 0.0
2016-Jul-15 18:33N 10°39' W 061°32'0 0.0
2016-Jul-15 17:33N 10°39' W 061°32'0 0.0
2016-Jul-15 16:33N 10°39' W 061°32'0 0.0
2016-Jul-15 15:31N 10°39' W 061°32'0 0.0
2016-Jul-15 14:32N 10°39' W 061°32'0 0.0
2016-Jul-15 13:31N 10°39' W 061°32'0 0.0
2016-Jul-15 12:32N 10°39' W 061°32'0 0.0
2016-Jul-15 11:33N 10°39' W 061°32'0 0.0
2016-Jul-15 10:33N 10°39' W 061°32'3 3.5
2016-Jul-15 09:34N 10°37' W 061°35'7 7.4
2016-Jul-15 08:33N 10°35' W 061°42'1212.3
2016-Jul-15 07:34N 10°25' W 061°49'1413.5
2016-Jul-15 06:33N 10°17' W 062°00'4711.3
2016-Jul-15 02:24N 09°59' W 061°17'  

Dump ship's entire track history